Stolt Bobcat — A8XZ9 — position and weather

sailwx.info

Track history (hours):
 
Tides and Currents Weather Stations Pressure Air Temp Water Temp Dewpoint Dewpoint Depression Visibility Wind Speed Wind Dir Waves Ship Positions

Stolt Bobcat

Last reported at 2018-Feb-24 23:59 UTC. Time now 2018-Feb-25 00:10 UTC.
Position N 29°37' W 095°01'.

Length 155 m; draft 7 m.

Type: Ship. MMSI: 636015004.

Date/timePositionNaut miles runAvg speedWind from/ knotsBaromVisibWave heightAir tempDewpointWater temp
2018-Feb-24 23:59N 29°37' W 095°01'0 0.0
2018-Feb-24 23:29N 29°37' W 095°01'0 0.0
2018-Feb-24 22:59N 29°37' W 095°01'0 0.0
2018-Feb-24 22:29N 29°37' W 095°01'0 0.0
2018-Feb-24 21:59N 29°37' W 095°01'0 0.0
2018-Feb-24 21:29N 29°37' W 095°01'0 0.0
2018-Feb-24 20:59N 29°37' W 095°01'0 0.0
2018-Feb-24 20:29N 29°37' W 095°01'0 0.0
2018-Feb-24 19:56N 29°37' W 095°01'0 0.0
2018-Feb-24 19:29N 29°37' W 095°01'0 0.0
2018-Feb-24 18:59N 29°37' W 095°01'0 0.0
2018-Feb-24 18:29N 29°37' W 095°01'0 0.0
2018-Feb-24 17:59N 29°37' W 095°01'0 0.0
2018-Feb-24 17:29N 29°37' W 095°01'0 0.0
2018-Feb-24 16:59N 29°37' W 095°01'0 0.0
2018-Feb-24 16:29N 29°37' W 095°01'0 0.0
2018-Feb-24 15:59N 29°37' W 095°01'0 0.0
2018-Feb-24 15:29N 29°37' W 095°01'0 0.0
2018-Feb-24 14:59N 29°37' W 095°01'0 0.0
2018-Feb-24 14:29N 29°37' W 095°01'0 0.0
2018-Feb-24 13:59N 29°37' W 095°01'0 0.0
2018-Feb-24 13:29N 29°37' W 095°01'0 0.0
2018-Feb-24 12:59N 29°37' W 095°01'0 0.0
2018-Feb-24 12:26N 29°37' W 095°01'0 0.0
2018-Feb-24 11:56N 29°37' W 095°01'0 0.0
2018-Feb-24 11:29N 29°37' W 095°01'0 0.0
2018-Feb-24 10:59N 29°37' W 095°01'0 0.0
2018-Feb-24 10:29N 29°37' W 095°01'0 0.0
2018-Feb-24 09:59N 29°37' W 095°01'0 0.0
2018-Feb-24 09:29N 29°37' W 095°01'0 0.0
2018-Feb-24 08:59N 29°37' W 095°01'0 0.0
2018-Feb-24 08:29N 29°37' W 095°01'0 0.0
2018-Feb-24 07:59N 29°37' W 095°01'0 0.0
2018-Feb-24 07:29N 29°37' W 095°01'0 0.0
2018-Feb-24 06:59N 29°37' W 095°01'0 0.0
2018-Feb-24 06:29N 29°37' W 095°01'0 0.0
2018-Feb-24 05:59N 29°37' W 095°01'0 0.0
2018-Feb-24 05:29N 29°37' W 095°01'0 0.0
2018-Feb-24 04:59N 29°37' W 095°01'0 0.0
2018-Feb-24 04:29N 29°37' W 095°01'0 0.0
2018-Feb-24 03:59N 29°37' W 095°01'0 0.0
2018-Feb-24 03:29N 29°37' W 095°01'0 0.0
2018-Feb-24 02:59N 29°37' W 095°01'0 0.0
2018-Feb-24 02:29N 29°37' W 095°01'0 0.0
2018-Feb-24 01:59N 29°37' W 095°01'0 0.0
2018-Feb-24 01:29N 29°37' W 095°01'0 0.0
2018-Feb-24 00:59N 29°37' W 095°01'0 0.0
2018-Feb-24 00:29N 29°37' W 095°01'0 0.0
2018-Feb-23 23:59N 29°37' W 095°01'0 0.0
2018-Feb-23 23:29N 29°37' W 095°01'0 0.0
2018-Feb-23 22:59N 29°37' W 095°01'0 0.0
2018-Feb-23 22:29N 29°37' W 095°01'0 0.0
2018-Feb-23 21:59N 29°37' W 095°01'0 0.0
2018-Feb-23 21:29N 29°37' W 095°01'0 0.0
2018-Feb-23 20:59N 29°37' W 095°01'0 0.0
2018-Feb-23 20:29N 29°37' W 095°01'0 0.0
2018-Feb-23 19:59N 29°37' W 095°01'0 0.5
2018-Feb-23 19:30N 29°37' W 095°01'3 6.7
2018-Feb-23 19:00N 29°37' W 094°57'4 8.7
2018-Feb-23 18:30N 29°41' W 094°59'3 0.1
2018-Feb-22 09:32N 29°43' W 095°01'0 0.0
2018-Feb-22 09:30N 29°43' W 095°01'1 2.5
2018-Feb-22 09:00N 29°42' W 095°01'4 8.6
2018-Feb-22 08:30N 29°39' W 094°58'510.2
2018-Feb-22 08:00N 29°34' W 094°55'510.4
2018-Feb-22 07:30N 29°30' W 094°52'510.2
2018-Feb-22 07:00N 29°25' W 094°50'15 0.5
2018-Feb-20 22:55N 29°13' W 094°40'0 0.0
2018-Feb-20 22:25N 29°13' W 094°40'0 0.0
2018-Feb-20 21:58N 29°13' W 094°40'0 0.0
2018-Feb-20 21:16N 29°13' W 094°40'0 0.0
2018-Feb-20 20:34N 29°13' W 094°40'0 0.0
2018-Feb-20 20:19N 29°13' W 094°40'0 0.0
2018-Feb-20 19:52N 29°13' W 094°40'0 0.0
2018-Feb-20 19:13N 29°13' W 094°40'0 0.0
2018-Feb-20 18:58N 29°13' W 094°40'0 0.0
2018-Feb-20 17:31N 29°13' W 094°40'0 0.0
2018-Feb-20 17:16N 29°13' W 094°40'0 0.0
2018-Feb-20 16:58N 29°13' W 094°40'0 0.0
2018-Feb-20 16:22N 29°13' W 094°40'0 0.0
2018-Feb-20 15:40N 29°13' W 094°40'0 0.0
2018-Feb-20 15:19N 29°13' W 094°40'0 0.0
2018-Feb-20 14:58N 29°13' W 094°40'0 0.0
2018-Feb-20 14:28N 29°13' W 094°40'0 0.0
2018-Feb-20 13:55N 29°13' W 094°40'0 0.0
2018-Feb-20 13:28N 29°13' W 094°40'0 0.0
2018-Feb-20 12:55N 29°13' W 094°40'0 0.0
2018-Feb-20 12:25N 29°13' W 094°40'0 0.0
2018-Feb-20 11:58N 29°13' W 094°40'0 0.0
2018-Feb-20 11:25N 29°13' W 094°40'0 0.0
2018-Feb-20 10:58N 29°13' W 094°40'0 0.0
2018-Feb-20 10:16N 29°13' W 094°40'0 0.0
2018-Feb-20 09:58N 29°13' W 094°40'0 0.0
2018-Feb-20 09:25N 29°13' W 094°40'0 0.0
2018-Feb-20 07:22N 29°13' W 094°40'0 0.0
2018-Feb-20 06:58N 29°13' W 094°40'0 0.0
2018-Feb-20 06:25N 29°13' W 094°40'0 0.0
2018-Feb-20 04:37N 29°13' W 094°40'0 0.0
2018-Feb-20 04:28N 29°13' W 094°40'0 0.0
2018-Feb-20 03:07N 29°13' W 094°40'0 0.0
2018-Feb-20 02:55N 29°13' W 094°40'0 0.0
2018-Feb-19 22:10N 29°13' W 094°40'0 0.0
2018-Feb-19 21:55N 29°13' W 094°40'0 0.0
2018-Feb-19 21:13N 29°13' W 094°40'0 0.0
2018-Feb-19 20:52N 29°13' W 094°40'0 0.0
2018-Feb-19 20:28N 29°13' W 094°40'0 0.0
2018-Feb-19 19:58N 29°13' W 094°40'0 0.0
2018-Feb-19 19:28N 29°13' W 094°40'0 0.0
2018-Feb-19 18:52N 29°13' W 094°40'0 0.0
2018-Feb-19 18:25N 29°13' W 094°40'0 0.1
2018-Feb-19 17:58N 29°13' W 094°40'0 0.0
2018-Feb-19 17:25N 29°13' W 094°40'0 0.0
2018-Feb-19 16:58N 29°13' W 094°40'0 0.0
2018-Feb-19 16:19N 29°13' W 094°40'0 0.0
2018-Feb-19 15:52N 29°13' W 094°40'0 0.0
2018-Feb-19 15:22N 29°13' W 094°40'0 0.1
2018-Feb-19 14:58N 29°13' W 094°40'0 0.1
2018-Feb-19 14:16N 29°13' W 094°40'0 0.0
2018-Feb-19 13:58N 29°13' W 094°40'0 0.0
2018-Feb-19 13:28N 29°13' W 094°40'0 0.0
2018-Feb-19 12:55N 29°13' W 094°40'0 0.0
2018-Feb-19 12:25N 29°13' W 094°40'0 0.0
2018-Feb-19 11:55N 29°13' W 094°40'0 0.0
2018-Feb-19 11:28N 29°13' W 094°40'0 0.0
2018-Feb-19 10:55N 29°13' W 094°40'0 0.0
2018-Feb-19 10:25N 29°13' W 094°40'0 0.0
2018-Feb-19 09:58N 29°13' W 094°40'0 0.0
2018-Feb-19 09:25N 29°13' W 094°40'0 0.0
2018-Feb-19 08:58N 29°13' W 094°40'0 0.0
2018-Feb-19 08:28N 29°13' W 094°40'0 0.0
2018-Feb-19 07:58N 29°13' W 094°40'0 0.0
2018-Feb-19 07:28N 29°13' W 094°40'0 0.0
2018-Feb-19 06:55N 29°13' W 094°40'0 0.0
2018-Feb-19 06:28N 29°13' W 094°40'0 0.0
2018-Feb-19 05:55N 29°13' W 094°40'0 0.0
2018-Feb-19 05:25N 29°13' W 094°40'0 0.1
2018-Feb-19 04:58N 29°13' W 094°40'0 0.0
2018-Feb-19 04:28N 29°13' W 094°40'0 0.0
2018-Feb-19 03:55N 29°13' W 094°40'0 0.0
2018-Feb-19 03:28N 29°13' W 094°40'0 0.0
2018-Feb-19 01:52N 29°13' W 094°40'0 0.0
2018-Feb-19 01:22N 29°13' W 094°40'0 0.0
2018-Feb-19 00:52N 29°13' W 094°40'0 0.0
2018-Feb-18 23:25N 29°13' W 094°40'0 0.0
2018-Feb-18 22:52N 29°13' W 094°40'0 0.0
2018-Feb-18 22:10N 29°13' W 094°40'0 0.0
2018-Feb-18 21:55N 29°13' W 094°40'0 0.0
2018-Feb-18 20:55N 29°13' W 094°40'0 0.0
2018-Feb-18 20:25N 29°13' W 094°40'0 0.0
2018-Feb-18 18:49N 29°13' W 094°40'0 0.0
2018-Feb-18 18:19N 29°13' W 094°40'0 0.0
2018-Feb-18 15:13N 29°13' W 094°40'0 0.0
2018-Feb-18 14:52N 29°13' W 094°40'0 0.0
2018-Feb-18 08:52N 29°13' W 094°40'0 0.0
2018-Feb-18 08:19N 29°13' W 094°40'0 0.0
2018-Feb-18 07:58N 29°13' W 094°40'0 0.0
2018-Feb-18 07:25N 29°13' W 094°40'0 0.0
2018-Feb-18 06:58N 29°13' W 094°40'0 0.0
2018-Feb-18 06:28N 29°13' W 094°40'0 0.0
2018-Feb-18 05:55N 29°13' W 094°40'0 0.0
2018-Feb-18 05:25N 29°13' W 094°40'0 0.0
2018-Feb-18 04:46N 29°13' W 094°40'0 0.0
2018-Feb-18 03:49N 29°13' W 094°40'0 0.0
2018-Feb-18 03:25N 29°13' W 094°40'0 0.0
2018-Feb-18 02:55N 29°13' W 094°40'0 0.0
2018-Feb-18 02:28N 29°13' W 094°40'0 0.0
2018-Feb-18 01:58N 29°13' W 094°40'0 0.0
2018-Feb-18 01:19N 29°13' W 094°40'0 0.0
2018-Feb-18 00:55N 29°13' W 094°40'0 0.0
2018-Feb-18 00:07N 29°13' W 094°40'0 0.0
2018-Feb-17 23:58N 29°13' W 094°40'0 0.0
2018-Feb-17 23:25N 29°13' W 094°40'0 0.0
2018-Feb-17 22:55N 29°13' W 094°40'0 0.1
2018-Feb-17 22:19N 29°13' W 094°40'0 0.0
2018-Feb-17 21:55N 29°13' W 094°40'0 0.0
2018-Feb-17 21:19N 29°13' W 094°40'0 0.0
2018-Feb-17 20:58N 29°13' W 094°40'0 0.0
2018-Feb-17 20:28N 29°13' W 094°40'0 0.0
2018-Feb-17 19:52N 29°13' W 094°40'0 0.0
2018-Feb-17 10:22N 29°13' W 094°40'0 0.0
2018-Feb-17 09:43N 29°13' W 094°40'0 0.0
2018-Feb-17 09:28N 29°13' W 094°40'0 0.0
2018-Feb-17 08:46N 29°13' W 094°40'0 0.0
2018-Feb-17 08:22N 29°13' W 094°40'0 0.0
2018-Feb-17 07:40N 29°13' W 094°40'0 0.1
2018-Feb-17 07:28N 29°13' W 094°40'0 0.0
2018-Feb-17 06:49N 29°13' W 094°40'0 0.0
2018-Feb-17 06:28N 29°13' W 094°40'0 0.0
2018-Feb-17 05:52N 29°13' W 094°40'0 0.0
2018-Feb-17 05:25N 29°13' W 094°40'0 0.0
2018-Feb-17 04:55N 29°13' W 094°40'0 0.0
2018-Feb-17 04:28N 29°13' W 094°40'0 0.0
2018-Feb-17 03:58N 29°13' W 094°40'0 0.0
2018-Feb-17 03:28N 29°13' W 094°40'0 0.0
2018-Feb-17 02:58N 29°13' W 094°40'0 0.0
2018-Feb-17 02:28N 29°13' W 094°40'0 0.0
2018-Feb-17 01:58N 29°13' W 094°40'0 0.0
2018-Feb-17 01:25N 29°13' W 094°40'0 0.0
2018-Feb-17 00:58N 29°13' W 094°40'0 0.0
2018-Feb-17 00:28N 29°13' W 094°40'0 0.0
2018-Feb-16 23:58N 29°13' W 094°40'0 0.0
2018-Feb-16 23:28N 29°13' W 094°40'0 0.0
2018-Feb-16 22:58N 29°13' W 094°40'0 0.0
2018-Feb-16 22:25N 29°13' W 094°40'0 0.0
2018-Feb-16 21:58N 29°13' W 094°40'0 0.0
2018-Feb-16 21:22N 29°13' W 094°40'0 0.0
2018-Feb-16 11:13N 29°13' W 094°40'0 0.1
2018-Feb-16 10:43N 29°13' W 094°40'0 0.0
2018-Feb-16 10:16N 29°13' W 094°40'0 0.0
2018-Feb-16 08:28N 29°13' W 094°40'0 0.0
2018-Feb-16 07:46N 29°13' W 094°40'0 0.0
2018-Feb-16 07:28N 29°13' W 094°40'0 0.0
2018-Feb-16 06:46N 29°13' W 094°40'0 0.0
2018-Feb-16 06:28N 29°13' W 094°40'0 0.0
2018-Feb-16 05:55N 29°13' W 094°40'0 0.0
2018-Feb-16 05:28N 29°13' W 094°40'0 0.0
2018-Feb-16 04:52N 29°13' W 094°40'0 0.0
2018-Feb-16 04:22N 29°13' W 094°40'0 0.0
2018-Feb-16 03:58N 29°13' W 094°40'0 0.0
2018-Feb-16 03:28N 29°13' W 094°40'0 0.0
2018-Feb-16 02:55N 29°13' W 094°40'0 0.0
2018-Feb-16 02:28N 29°13' W 094°40'0 0.0
2018-Feb-16 01:55N 29°13' W 094°40'0 0.0
2018-Feb-16 01:25N 29°13' W 094°40'0 0.0
2018-Feb-16 00:55N 29°13' W 094°40'0 0.0
2018-Feb-16 00:01N 29°13' W 094°40'0 0.0
2018-Feb-15 23:58N 29°13' W 094°40'0 0.0
2018-Feb-15 22:28N 29°13' W 094°40'0 0.0
2018-Feb-15 21:58N 29°13' W 094°40'0 0.0
2018-Feb-15 21:28N 29°13' W 094°40'0 0.0
2018-Feb-15 20:58N 29°13' W 094°40'0 0.0
2018-Feb-15 20:28N 29°13' W 094°40'0 0.0
2018-Feb-15 19:58N 29°13' W 094°40'0 0.0
2018-Feb-15 19:25N 29°13' W 094°40'0 0.0
2018-Feb-15 18:46N 29°13' W 094°40'0 0.0
2018-Feb-15 18:25N 29°13' W 094°40'0 0.0
2018-Feb-15 17:52N 29°13' W 094°40'0 0.0
2018-Feb-15 17:28N 29°13' W 094°40'0 0.0
2018-Feb-15 11:31N 29°13' W 094°40'0 0.0
2018-Feb-15 11:01N 29°13' W 094°40'0 0.0
2018-Feb-15 10:31N 29°13' W 094°40'0 0.0
2018-Feb-15 10:28N 29°13' W 094°40'0 0.0
2018-Feb-15 09:43N 29°13' W 094°40'0 0.0
2018-Feb-15 09:22N 29°13' W 094°40'0 0.0
2018-Feb-15 08:52N 29°13' W 094°40'0 0.0
2018-Feb-15 08:28N 29°13' W 094°40'0 0.0
2018-Feb-15 07:55N 29°13' W 094°40'0 0.0
2018-Feb-15 07:28N 29°13' W 094°40'0 0.0
2018-Feb-15 06:55N 29°13' W 094°40'0 0.0
2018-Feb-15 06:25N 29°13' W 094°40'0 0.0
2018-Feb-15 05:58N 29°13' W 094°40'0 0.0
2018-Feb-15 05:28N 29°13' W 094°40'0 0.0
2018-Feb-15 04:52N 29°13' W 094°40'0 0.0
2018-Feb-15 04:28N 29°13' W 094°40'0 0.0
2018-Feb-15 03:55N 29°13' W 094°40'0 0.0
2018-Feb-15 03:28N 29°13' W 094°40'0 0.0
2018-Feb-15 02:58N 29°13' W 094°40'0 0.0
2018-Feb-15 02:25N 29°13' W 094°40'0 0.0
2018-Feb-15 01:55N 29°13' W 094°40'0 0.0
2018-Feb-15 01:25N 29°13' W 094°40'0 0.0
2018-Feb-15 00:22N 29°13' W 094°40'  
Track history (hours):
 
Tides and Currents Weather Stations Pressure Air Temp Water Temp Dewpoint Dewpoint Depression Visibility Wind Speed Wind Dir Waves Ship Positions

Stolt Bobcat

Last reported at 2018-Feb-24 23:59 UTC. Time now 2018-Feb-25 00:10 UTC.
Position N 29°37' W 095°01'.

Length 155 m; draft 7 m.

Type: Ship. MMSI: 636015004.

Date/timePositionNaut miles runAvg speedWind from/ knotsBaromVisibWave heightAir tempDewpointWater temp
2018-Feb-24 23:59N 29°37' W 095°01'0 0.0
2018-Feb-24 23:29N 29°37' W 095°01'0 0.0
2018-Feb-24 22:59N 29°37' W 095°01'0 0.0
2018-Feb-24 22:29N 29°37' W 095°01'0 0.0
2018-Feb-24 21:59N 29°37' W 095°01'0 0.0
2018-Feb-24 21:29N 29°37' W 095°01'0 0.0
2018-Feb-24 20:59N 29°37' W 095°01'0 0.0
2018-Feb-24 20:29N 29°37' W 095°01'0 0.0
2018-Feb-24 19:56N 29°37' W 095°01'0 0.0
2018-Feb-24 19:29N 29°37' W 095°01'0 0.0
2018-Feb-24 18:59N 29°37' W 095°01'0 0.0
2018-Feb-24 18:29N 29°37' W 095°01'0 0.0
2018-Feb-24 17:59N 29°37' W 095°01'0 0.0
2018-Feb-24 17:29N 29°37' W 095°01'0 0.0
2018-Feb-24 16:59N 29°37' W 095°01'0 0.0
2018-Feb-24 16:29N 29°37' W 095°01'0 0.0
2018-Feb-24 15:59N 29°37' W 095°01'0 0.0
2018-Feb-24 15:29N 29°37' W 095°01'0 0.0
2018-Feb-24 14:59N 29°37' W 095°01'0 0.0
2018-Feb-24 14:29N 29°37' W 095°01'0 0.0
2018-Feb-24 13:59N 29°37' W 095°01'0 0.0
2018-Feb-24 13:29N 29°37' W 095°01'0 0.0
2018-Feb-24 12:59N 29°37' W 095°01'0 0.0
2018-Feb-24 12:26N 29°37' W 095°01'0 0.0
2018-Feb-24 11:56N 29°37' W 095°01'0 0.0
2018-Feb-24 11:29N 29°37' W 095°01'0 0.0
2018-Feb-24 10:59N 29°37' W 095°01'0 0.0
2018-Feb-24 10:29N 29°37' W 095°01'0 0.0
2018-Feb-24 09:59N 29°37' W 095°01'0 0.0
2018-Feb-24 09:29N 29°37' W 095°01'0 0.0
2018-Feb-24 08:59N 29°37' W 095°01'0 0.0
2018-Feb-24 08:29N 29°37' W 095°01'0 0.0
2018-Feb-24 07:59N 29°37' W 095°01'0 0.0
2018-Feb-24 07:29N 29°37' W 095°01'0 0.0
2018-Feb-24 06:59N 29°37' W 095°01'0 0.0
2018-Feb-24 06:29N 29°37' W 095°01'0 0.0
2018-Feb-24 05:59N 29°37' W 095°01'0 0.0
2018-Feb-24 05:29N 29°37' W 095°01'0 0.0
2018-Feb-24 04:59N 29°37' W 095°01'0 0.0
2018-Feb-24 04:29N 29°37' W 095°01'0 0.0
2018-Feb-24 03:59N 29°37' W 095°01'0 0.0
2018-Feb-24 03:29N 29°37' W 095°01'0 0.0
2018-Feb-24 02:59N 29°37' W 095°01'0 0.0
2018-Feb-24 02:29N 29°37' W 095°01'0 0.0
2018-Feb-24 01:59N 29°37' W 095°01'0 0.0
2018-Feb-24 01:29N 29°37' W 095°01'0 0.0
2018-Feb-24 00:59N 29°37' W 095°01'0 0.0
2018-Feb-24 00:29N 29°37' W 095°01'0 0.0
2018-Feb-23 23:59N 29°37' W 095°01'0 0.0
2018-Feb-23 23:29N 29°37' W 095°01'0 0.0
2018-Feb-23 22:59N 29°37' W 095°01'0 0.0
2018-Feb-23 22:29N 29°37' W 095°01'0 0.0
2018-Feb-23 21:59N 29°37' W 095°01'0 0.0
2018-Feb-23 21:29N 29°37' W 095°01'0 0.0
2018-Feb-23 20:59N 29°37' W 095°01'0 0.0
2018-Feb-23 20:29N 29°37' W 095°01'0 0.0
2018-Feb-23 19:59N 29°37' W 095°01'0 0.5
2018-Feb-23 19:30N 29°37' W 095°01'3 6.7
2018-Feb-23 19:00N 29°37' W 094°57'4 8.7
2018-Feb-23 18:30N 29°41' W 094°59'3 0.1
2018-Feb-22 09:32N 29°43' W 095°01'0 0.0
2018-Feb-22 09:30N 29°43' W 095°01'1 2.5
2018-Feb-22 09:00N 29°42' W 095°01'4 8.6
2018-Feb-22 08:30N 29°39' W 094°58'510.2
2018-Feb-22 08:00N 29°34' W 094°55'510.4
2018-Feb-22 07:30N 29°30' W 094°52'510.2
2018-Feb-22 07:00N 29°25' W 094°50'15 0.5
2018-Feb-20 22:55N 29°13' W 094°40'0 0.0
2018-Feb-20 22:25N 29°13' W 094°40'0 0.0
2018-Feb-20 21:58N 29°13' W 094°40'0 0.0
2018-Feb-20 21:16N 29°13' W 094°40'0 0.0
2018-Feb-20 20:34N 29°13' W 094°40'0 0.0
2018-Feb-20 20:19N 29°13' W 094°40'0 0.0
2018-Feb-20 19:52N 29°13' W 094°40'0 0.0
2018-Feb-20 19:13N 29°13' W 094°40'0 0.0
2018-Feb-20 18:58N 29°13' W 094°40'0 0.0
2018-Feb-20 17:31N 29°13' W 094°40'0 0.0
2018-Feb-20 17:16N 29°13' W 094°40'0 0.0
2018-Feb-20 16:58N 29°13' W 094°40'0 0.0
2018-Feb-20 16:22N 29°13' W 094°40'0 0.0
2018-Feb-20 15:40N 29°13' W 094°40'0 0.0
2018-Feb-20 15:19N 29°13' W 094°40'0 0.0
2018-Feb-20 14:58N 29°13' W 094°40'0 0.0
2018-Feb-20 14:28N 29°13' W 094°40'0 0.0
2018-Feb-20 13:55N 29°13' W 094°40'0 0.0
2018-Feb-20 13:28N 29°13' W 094°40'0 0.0
2018-Feb-20 12:55N 29°13' W 094°40'0 0.0
2018-Feb-20 12:25N 29°13' W 094°40'0 0.0
2018-Feb-20 11:58N 29°13' W 094°40'0 0.0
2018-Feb-20 11:25N 29°13' W 094°40'0 0.0
2018-Feb-20 10:58N 29°13' W 094°40'0 0.0
2018-Feb-20 10:16N 29°13' W 094°40'0 0.0
2018-Feb-20 09:58N 29°13' W 094°40'0 0.0
2018-Feb-20 09:25N 29°13' W 094°40'0 0.0
2018-Feb-20 07:22N 29°13' W 094°40'0 0.0
2018-Feb-20 06:58N 29°13' W 094°40'0 0.0
2018-Feb-20 06:25N 29°13' W 094°40'0 0.0
2018-Feb-20 04:37N 29°13' W 094°40'0 0.0
2018-Feb-20 04:28N 29°13' W 094°40'0 0.0
2018-Feb-20 03:07N 29°13' W 094°40'0 0.0
2018-Feb-20 02:55N 29°13' W 094°40'0 0.0
2018-Feb-19 22:10N 29°13' W 094°40'0 0.0
2018-Feb-19 21:55N 29°13' W 094°40'0 0.0
2018-Feb-19 21:13N 29°13' W 094°40'0 0.0
2018-Feb-19 20:52N 29°13' W 094°40'0 0.0
2018-Feb-19 20:28N 29°13' W 094°40'0 0.0
2018-Feb-19 19:58N 29°13' W 094°40'0 0.0
2018-Feb-19 19:28N 29°13' W 094°40'0 0.0
2018-Feb-19 18:52N 29°13' W 094°40'0 0.0
2018-Feb-19 18:25N 29°13' W 094°40'0 0.1
2018-Feb-19 17:58N 29°13' W 094°40'0 0.0
2018-Feb-19 17:25N 29°13' W 094°40'0 0.0
2018-Feb-19 16:58N 29°13' W 094°40'0 0.0
2018-Feb-19 16:19N 29°13' W 094°40'0 0.0
2018-Feb-19 15:52N 29°13' W 094°40'0 0.0
2018-Feb-19 15:22N 29°13' W 094°40'0 0.1
2018-Feb-19 14:58N 29°13' W 094°40'0 0.1
2018-Feb-19 14:16N 29°13' W 094°40'0 0.0
2018-Feb-19 13:58N 29°13' W 094°40'0 0.0
2018-Feb-19 13:28N 29°13' W 094°40'0 0.0
2018-Feb-19 12:55N 29°13' W 094°40'0 0.0
2018-Feb-19 12:25N 29°13' W 094°40'0 0.0
2018-Feb-19 11:55N 29°13' W 094°40'0 0.0
2018-Feb-19 11:28N 29°13' W 094°40'0 0.0
2018-Feb-19 10:55N 29°13' W 094°40'0 0.0
2018-Feb-19 10:25N 29°13' W 094°40'0 0.0
2018-Feb-19 09:58N 29°13' W 094°40'0 0.0
2018-Feb-19 09:25N 29°13' W 094°40'0 0.0
2018-Feb-19 08:58N 29°13' W 094°40'0 0.0
2018-Feb-19 08:28N 29°13' W 094°40'0 0.0
2018-Feb-19 07:58N 29°13' W 094°40'0 0.0
2018-Feb-19 07:28N 29°13' W 094°40'0 0.0
2018-Feb-19 06:55N 29°13' W 094°40'0 0.0
2018-Feb-19 06:28N 29°13' W 094°40'0 0.0
2018-Feb-19 05:55N 29°13' W 094°40'0 0.0
2018-Feb-19 05:25N 29°13' W 094°40'0 0.1
2018-Feb-19 04:58N 29°13' W 094°40'0 0.0
2018-Feb-19 04:28N 29°13' W 094°40'0 0.0
2018-Feb-19 03:55N 29°13' W 094°40'0 0.0
2018-Feb-19 03:28N 29°13' W 094°40'0 0.0
2018-Feb-19 01:52N 29°13' W 094°40'0 0.0
2018-Feb-19 01:22N 29°13' W 094°40'0 0.0
2018-Feb-19 00:52N 29°13' W 094°40'0 0.0
2018-Feb-18 23:25N 29°13' W 094°40'0 0.0
2018-Feb-18 22:52N 29°13' W 094°40'0 0.0
2018-Feb-18 22:10N 29°13' W 094°40'0 0.0
2018-Feb-18 21:55N 29°13' W 094°40'0 0.0
2018-Feb-18 20:55N 29°13' W 094°40'0 0.0
2018-Feb-18 20:25N 29°13' W 094°40'0 0.0
2018-Feb-18 18:49N 29°13' W 094°40'0 0.0
2018-Feb-18 18:19N 29°13' W 094°40'0 0.0
2018-Feb-18 15:13N 29°13' W 094°40'0 0.0
2018-Feb-18 14:52N 29°13' W 094°40'0 0.0
2018-Feb-18 08:52N 29°13' W 094°40'0 0.0
2018-Feb-18 08:19N 29°13' W 094°40'0 0.0
2018-Feb-18 07:58N 29°13' W 094°40'0 0.0
2018-Feb-18 07:25N 29°13' W 094°40'0 0.0
2018-Feb-18 06:58N 29°13' W 094°40'0 0.0
2018-Feb-18 06:28N 29°13' W 094°40'0 0.0
2018-Feb-18 05:55N 29°13' W 094°40'0 0.0
2018-Feb-18 05:25N 29°13' W 094°40'0 0.0
2018-Feb-18 04:46N 29°13' W 094°40'0 0.0
2018-Feb-18 03:49N 29°13' W 094°40'0 0.0
2018-Feb-18 03:25N 29°13' W 094°40'0 0.0
2018-Feb-18 02:55N 29°13' W 094°40'0 0.0
2018-Feb-18 02:28N 29°13' W 094°40'0 0.0
2018-Feb-18 01:58N 29°13' W 094°40'0 0.0
2018-Feb-18 01:19N 29°13' W 094°40'0 0.0
2018-Feb-18 00:55N 29°13' W 094°40'0 0.0
2018-Feb-18 00:07N 29°13' W 094°40'0 0.0
2018-Feb-17 23:58N 29°13' W 094°40'0 0.0
2018-Feb-17 23:25N 29°13' W 094°40'0 0.0
2018-Feb-17 22:55N 29°13' W 094°40'0 0.1
2018-Feb-17 22:19N 29°13' W 094°40'0 0.0
2018-Feb-17 21:55N 29°13' W 094°40'0 0.0
2018-Feb-17 21:19N 29°13' W 094°40'0 0.0
2018-Feb-17 20:58N 29°13' W 094°40'0 0.0
2018-Feb-17 20:28N 29°13' W 094°40'0 0.0
2018-Feb-17 19:52N 29°13' W 094°40'0 0.0
2018-Feb-17 10:22N 29°13' W 094°40'0 0.0
2018-Feb-17 09:43N 29°13' W 094°40'0 0.0
2018-Feb-17 09:28N 29°13' W 094°40'0 0.0
2018-Feb-17 08:46N 29°13' W 094°40'0 0.0
2018-Feb-17 08:22N 29°13' W 094°40'0 0.0
2018-Feb-17 07:40N 29°13' W 094°40'0 0.1
2018-Feb-17 07:28N 29°13' W 094°40'0 0.0
2018-Feb-17 06:49N 29°13' W 094°40'0 0.0
2018-Feb-17 06:28N 29°13' W 094°40'0 0.0
2018-Feb-17 05:52N 29°13' W 094°40'0 0.0
2018-Feb-17 05:25N 29°13' W 094°40'0 0.0
2018-Feb-17 04:55N 29°13' W 094°40'0 0.0
2018-Feb-17 04:28N 29°13' W 094°40'0 0.0
2018-Feb-17 03:58N 29°13' W 094°40'0 0.0
2018-Feb-17 03:28N 29°13' W 094°40'0 0.0
2018-Feb-17 02:58N 29°13' W 094°40'0 0.0
2018-Feb-17 02:28N 29°13' W 094°40'0 0.0
2018-Feb-17 01:58N 29°13' W 094°40'0 0.0
2018-Feb-17 01:25N 29°13' W 094°40'0 0.0
2018-Feb-17 00:58N 29°13' W 094°40'0 0.0
2018-Feb-17 00:28N 29°13' W 094°40'0 0.0
2018-Feb-16 23:58N 29°13' W 094°40'0 0.0
2018-Feb-16 23:28N 29°13' W 094°40'0 0.0
2018-Feb-16 22:58N 29°13' W 094°40'0 0.0
2018-Feb-16 22:25N 29°13' W 094°40'0 0.0
2018-Feb-16 21:58N 29°13' W 094°40'0 0.0
2018-Feb-16 21:22N 29°13' W 094°40'0 0.0
2018-Feb-16 11:13N 29°13' W 094°40'0 0.1
2018-Feb-16 10:43N 29°13' W 094°40'0 0.0
2018-Feb-16 10:16N 29°13' W 094°40'0 0.0
2018-Feb-16 08:28N 29°13' W 094°40'0 0.0
2018-Feb-16 07:46N 29°13' W 094°40'0 0.0
2018-Feb-16 07:28N 29°13' W 094°40'0 0.0
2018-Feb-16 06:46N 29°13' W 094°40'0 0.0
2018-Feb-16 06:28N 29°13' W 094°40'0 0.0
2018-Feb-16 05:55N 29°13' W 094°40'0 0.0
2018-Feb-16 05:28N 29°13' W 094°40'0 0.0
2018-Feb-16 04:52N 29°13' W 094°40'0 0.0
2018-Feb-16 04:22N 29°13' W 094°40'0 0.0
2018-Feb-16 03:58N 29°13' W 094°40'0 0.0
2018-Feb-16 03:28N 29°13' W 094°40'0 0.0
2018-Feb-16 02:55N 29°13' W 094°40'0 0.0
2018-Feb-16 02:28N 29°13' W 094°40'0 0.0
2018-Feb-16 01:55N 29°13' W 094°40'0 0.0
2018-Feb-16 01:25N 29°13' W 094°40'0 0.0
2018-Feb-16 00:55N 29°13' W 094°40'0 0.0
2018-Feb-16 00:01N 29°13' W 094°40'0 0.0
2018-Feb-15 23:58N 29°13' W 094°40'0 0.0
2018-Feb-15 22:28N 29°13' W 094°40'0 0.0
2018-Feb-15 21:58N 29°13' W 094°40'0 0.0
2018-Feb-15 21:28N 29°13' W 094°40'0 0.0
2018-Feb-15 20:58N 29°13' W 094°40'0 0.0
2018-Feb-15 20:28N 29°13' W 094°40'0 0.0
2018-Feb-15 19:58N 29°13' W 094°40'0 0.0
2018-Feb-15 19:25N 29°13' W 094°40'0 0.0
2018-Feb-15 18:46N 29°13' W 094°40'0 0.0
2018-Feb-15 18:25N 29°13' W 094°40'0 0.0
2018-Feb-15 17:52N 29°13' W 094°40'0 0.0
2018-Feb-15 17:28N 29°13' W 094°40'0 0.0
2018-Feb-15 11:31N 29°13' W 094°40'0 0.0
2018-Feb-15 11:01N 29°13' W 094°40'0 0.0
2018-Feb-15 10:31N 29°13' W 094°40'0 0.0
2018-Feb-15 10:28N 29°13' W 094°40'0 0.0
2018-Feb-15 09:43N 29°13' W 094°40'0 0.0
2018-Feb-15 09:22N 29°13' W 094°40'0 0.0
2018-Feb-15 08:52N 29°13' W 094°40'0 0.0
2018-Feb-15 08:28N 29°13' W 094°40'0 0.0
2018-Feb-15 07:55N 29°13' W 094°40'0 0.0
2018-Feb-15 07:28N 29°13' W 094°40'0 0.0
2018-Feb-15 06:55N 29°13' W 094°40'0 0.0
2018-Feb-15 06:25N 29°13' W 094°40'0 0.0
2018-Feb-15 05:58N 29°13' W 094°40'0 0.0
2018-Feb-15 05:28N 29°13' W 094°40'0 0.0
2018-Feb-15 04:52N 29°13' W 094°40'0 0.0
2018-Feb-15 04:28N 29°13' W 094°40'0 0.0
2018-Feb-15 03:55N 29°13' W 094°40'0 0.0
2018-Feb-15 03:28N 29°13' W 094°40'0 0.0
2018-Feb-15 02:58N 29°13' W 094°40'0 0.0
2018-Feb-15 02:25N 29°13' W 094°40'0 0.0
2018-Feb-15 01:55N 29°13' W 094°40'0 0.0
2018-Feb-15 01:25N 29°13' W 094°40'0 0.0
2018-Feb-15 00:22N 29°13' W 094°40'  

Dump ship's entire track history